createdAt,value
2019-01-24T00:01:35.864Z,99996.24
2019-01-24T00:04:05.304Z,99996.13
2019-01-24T00:06:34.622Z,99999.29
2019-01-24T00:09:05.527Z,100006.34
2019-01-24T00:11:34.983Z,100004.19
2019-01-24T00:14:04.396Z,100012.91
2019-01-24T00:16:33.824Z,100013.49
2019-01-24T00:19:03.185Z,100020.48
2019-01-24T00:21:32.610Z,100024.66
2019-01-24T00:24:02.023Z,100025.44
2019-01-24T00:26:31.520Z,100034.59
2019-01-24T00:29:01.023Z,100038.11
2019-01-24T00:31:30.524Z,100039.58
2019-01-24T00:33:59.990Z,100032.98
2019-01-24T00:36:29.350Z,100037.89
2019-01-24T00:38:58.686Z,100043.29
2019-01-24T00:41:29.084Z,100047.80
2019-01-24T00:43:58.545Z,100044.72
2019-01-24T00:46:27.998Z,100049.56
2019-01-24T00:48:57.363Z,100049.23
2019-01-24T00:51:26.736Z,100049.70
2019-01-24T00:53:56.140Z,100046.95
2019-01-24T00:56:25.507Z,100054.55
2019-01-24T00:58:54.966Z,100051.94
2019-01-24T01:01:24.461Z,100054.55
2019-01-24T01:03:53.969Z,100053.63
2019-01-24T01:06:54.031Z,100054.17
2019-01-24T01:09:34.914Z,100064.67
2019-01-24T01:12:04.752Z,100064.67
2019-01-24T01:14:35.380Z,100063.89
2019-01-24T01:17:25.362Z,100076.23
2019-01-24T01:19:55.004Z,100088.23
2019-01-24T01:22:24.681Z,100085.72
2019-01-24T01:24:54.097Z,100087.03
2019-01-24T01:27:23.669Z,100082.30
2019-01-24T01:29:56.037Z,100082.38
2019-01-24T01:32:25.562Z,100086.27
2019-01-24T01:34:55.709Z,100093.77
2019-01-24T01:37:25.012Z,100089.42
2019-01-24T01:39:54.542Z,100088.97
2019-01-24T01:42:24.109Z,100097.48
2019-01-24T01:44:53.431Z,100101.16
2019-01-24T01:47:22.937Z,100105.55
2019-01-24T01:49:52.525Z,100107.37
2019-01-24T01:52:22.003Z,100114.73
2019-01-24T01:54:51.523Z,100115.84
2019-01-24T01:57:21.021Z,100116.48
2019-01-24T01:59:50.524Z,100114.48
2019-01-24T02:02:19.873Z,100115.47
2019-01-24T02:04:49.516Z,100111.37
2019-01-24T02:07:18.856Z,100106.89
2019-01-24T02:09:48.250Z,100112.86
2019-01-24T02:12:17.546Z,100116.16
2019-01-24T02:14:46.905Z,100121.44
2019-01-24T02:17:16.245Z,100121.16
2019-01-24T02:19:45.609Z,100128.63
2019-01-24T02:22:14.923Z,100122.59
2019-01-24T02:24:44.346Z,100121.76
2019-01-24T02:27:13.685Z,100125.13
2019-01-24T02:29:45.065Z,100125.00
2019-01-24T02:32:14.517Z,100120.33
2019-01-24T02:34:49.661Z,100131.45
2019-01-24T02:37:14.892Z,100125.05
2019-01-24T02:39:44.318Z,100124.70
2019-01-24T02:42:13.783Z,100128.61
2019-01-24T02:44:43.255Z,100124.50
2019-01-24T02:47:12.755Z,100124.66
2019-01-24T02:49:42.183Z,100130.81
2019-01-24T02:52:11.575Z,100129.33
2019-01-24T02:54:40.938Z,100129.63
2019-01-24T02:57:10.292Z,100131.69
2019-01-24T02:59:40.285Z,100135.88
2019-01-24T03:02:09.700Z,100133.13
2019-01-24T03:04:39.017Z,100138.31
2019-01-24T03:07:08.393Z,100138.20
2019-01-24T03:09:37.850Z,100138.09
2019-01-24T03:12:07.205Z,100137.17
2019-01-24T03:14:36.621Z,100141.52
2019-01-24T03:17:05.944Z,100141.06
2019-01-24T03:19:35.396Z,100146.41
2019-01-24T03:22:04.742Z,100144.89
2019-01-24T03:24:34.102Z,100150.22
2019-01-24T03:27:03.347Z,100146.81
2019-01-24T03:29:32.667Z,100144.67
2019-01-24T03:32:02.150Z,100143.98
2019-01-24T03:34:31.572Z,100139.38
2019-01-24T03:37:00.787Z,100142.27
2019-01-24T03:39:30.210Z,100141.02
2019-01-24T03:41:59.423Z,100138.92
2019-01-24T03:44:29.870Z,100145.34
2019-01-24T03:46:59.204Z,100149.69
2019-01-24T03:49:28.657Z,100147.28
2019-01-24T03:52:00.002Z,100154.53
2019-01-24T03:54:29.434Z,100157.12
2019-01-24T03:56:58.733Z,100146.72
2019-01-24T03:59:28.054Z,100150.09
2019-01-24T04:01:57.475Z,100150.54
2019-01-24T04:04:26.926Z,100158.93
2019-01-24T04:06:56.518Z,100159.20
2019-01-24T04:09:25.920Z,100151.95
2019-01-24T04:11:55.253Z,100157.35
2019-01-24T04:14:24.596Z,100159.99
2019-01-24T04:16:53.869Z,100153.62
2019-01-24T04:19:23.346Z,100148.16
2019-01-24T04:21:52.853Z,100156.61
2019-01-24T04:24:22.107Z,100155.94
2019-01-24T04:26:51.474Z,100152.17
2019-01-24T04:29:20.936Z,100159.05
2019-01-24T04:31:50.456Z,100167.82
2019-01-24T04:34:19.861Z,100167.70
2019-01-24T04:36:49.333Z,100169.61
2019-01-24T04:39:18.754Z,100174.57
2019-01-24T04:41:48.106Z,100174.58
2019-01-24T04:44:17.346Z,100174.20
2019-01-24T04:46:46.674Z,100177.42
2019-01-24T04:49:16.374Z,100175.14
2019-01-24T04:51:45.695Z,100180.73
2019-01-24T04:54:15.009Z,100188.16
2019-01-24T04:56:44.367Z,100188.16
2019-01-24T04:59:13.854Z,100187.41
2019-01-24T05:01:43.301Z,100182.80
2019-01-24T05:04:12.630Z,100180.55
2019-01-24T05:06:42.190Z,100181.48
2019-01-24T05:09:11.526Z,100183.02
2019-01-24T05:11:40.991Z,100181.11
2019-01-24T05:14:10.350Z,100172.92
2019-01-24T05:16:39.693Z,100175.29
2019-01-24T05:19:09.033Z,100193.65
2019-01-24T05:21:38.420Z,100201.94
2019-01-24T05:24:07.697Z,100215.59
2019-01-24T05:26:37.037Z,100215.59
2019-01-24T05:29:06.496Z,100213.07
2019-01-24T05:31:36.907Z,100207.38
2019-01-24T05:34:06.219Z,100208.19
2019-01-24T05:36:35.669Z,100208.19
2019-01-24T05:39:48.595Z,100222.64
2019-01-24T05:42:18.023Z,100222.95
2019-01-24T05:44:47.457Z,100222.95
2019-01-24T05:47:35.840Z,100227.23
2019-01-24T05:50:06.350Z,100223.69
2019-01-24T05:52:35.856Z,100234.14
2019-01-24T05:55:42.013Z,100227.33
2019-01-24T05:58:11.312Z,100227.33
2019-01-24T06:00:59.644Z,100245.50
2019-01-24T06:03:29.044Z,100245.50
2019-01-24T06:06:35.224Z,100238.46
2019-01-24T06:09:06.181Z,100238.46
2019-01-24T06:11:45.702Z,100231.13
2019-01-24T06:14:15.093Z,100231.13
2019-01-24T06:16:44.499Z,100238.11
2019-01-24T06:19:13.976Z,100236.30
2019-01-24T06:22:02.340Z,100241.42
2019-01-24T06:24:31.836Z,100245.09
2019-01-24T06:27:01.287Z,100245.09
2019-01-24T06:29:30.576Z,100249.72
2019-01-24T06:32:54.297Z,100255.03
2019-01-24T06:35:48.666Z,100258.56
2019-01-24T06:38:25.718Z,100265.94
2019-01-24T06:40:55.159Z,100265.94
2019-01-24T06:46:13.158Z,100266.75
2019-01-24T06:49:12.472Z,100266.37
2019-01-24T06:51:41.961Z,100275.38
2019-01-24T06:55:05.644Z,100277.77
2019-01-24T06:57:37.050Z,100277.77
2019-01-24T07:00:09.425Z,100283.95
2019-01-24T07:02:46.448Z,100295.19
2019-01-24T07:05:15.977Z,100295.19
2019-01-24T07:11:44.596Z,100301.95
2019-01-24T07:14:26.095Z,100297.25
2019-01-24T07:16:55.701Z,100303.48
2019-01-24T07:19:25.090Z,100303.48
2019-01-24T07:21:57.157Z,100317.12
2019-01-24T07:27:28.771Z,100324.67
2019-01-24T07:29:58.174Z,100324.67
2019-01-24T07:32:59.708Z,100331.44
2019-01-24T07:35:51.131Z,100327.98
2019-01-24T07:38:51.850Z,100337.52
2019-01-24T07:42:00.517Z,100337.52
2019-01-24T07:44:35.739Z,100337.89
2019-01-24T07:47:05.188Z,100347.13
2019-01-24T07:49:34.579Z,100346.89
2019-01-24T07:52:04.001Z,100346.89
2019-01-24T07:54:33.300Z,100341.41
2019-01-24T07:57:02.658Z,100355.49
2019-01-24T07:59:32.049Z,100355.49
2019-01-24T08:02:01.330Z,100358.00
2019-01-24T08:04:30.633Z,100358.00
2019-01-24T08:06:59.883Z,100355.24
2019-01-24T08:09:29.351Z,100357.00
2019-01-24T08:12:35.435Z,100354.50
2019-01-24T08:15:05.109Z,100354.50
2019-01-24T08:17:34.841Z,100357.34
2019-01-24T08:20:05.199Z,100357.42
2019-01-24T08:22:34.481Z,100372.81
2019-01-24T08:25:04.307Z,100372.81
2019-01-24T08:27:33.830Z,100377.08
2019-01-24T08:33:12.353Z,100387.88
2019-01-24T08:35:41.702Z,100391.25
2019-01-24T08:38:11.055Z,100387.66
2019-01-24T08:40:40.609Z,100394.62
2019-01-24T08:43:10.111Z,100394.62
2019-01-24T08:45:39.458Z,100401.05
2019-01-24T08:48:09.704Z,100401.41
2019-01-24T08:50:39.116Z,100408.48
2019-01-24T08:53:08.389Z,100413.08
2019-01-24T08:55:40.069Z,100408.52
2019-01-24T08:58:10.146Z,100411.55
2019-01-24T09:00:39.812Z,100416.39
2019-01-24T09:03:09.532Z,100415.52
2019-01-24T09:05:39.032Z,100412.03
2019-01-24T09:08:08.351Z,100417.41
2019-01-24T09:10:42.803Z,100416.94
2019-01-24T09:13:13.903Z,100416.15
2019-01-24T09:15:43.920Z,100417.16
2019-01-24T09:18:13.811Z,100418.62
2019-01-24T09:20:43.360Z,100422.19
2019-01-24T09:23:12.634Z,100419.82
2019-01-24T09:25:42.019Z,100417.27
2019-01-24T09:28:14.904Z,100419.48
2019-01-24T09:30:42.748Z,100419.12
2019-01-24T09:33:12.220Z,100420.57
2019-01-24T09:35:41.506Z,100423.15
2019-01-24T09:38:10.919Z,100432.28
2019-01-24T09:40:40.380Z,100428.09
2019-01-24T09:43:09.693Z,100431.97
2019-01-24T09:45:41.543Z,100429.83
2019-01-24T09:48:11.297Z,100426.98
2019-01-24T09:50:40.691Z,100424.70
2019-01-24T09:53:09.992Z,100426.65
2019-01-24T09:55:39.460Z,100427.53
2019-01-24T09:58:08.851Z,100423.30
2019-01-24T10:00:38.864Z,100424.56
2019-01-24T10:03:08.598Z,100421.88
2019-01-24T10:05:37.951Z,100416.99
2019-01-24T10:08:08.058Z,100429.08
2019-01-24T10:10:37.531Z,100427.14
2019-01-24T10:13:07.359Z,100427.19
2019-01-24T10:15:37.184Z,100421.41
2019-01-24T10:18:07.129Z,100417.89
2019-01-24T10:20:37.533Z,100422.87
2019-01-24T10:23:06.969Z,100424.19
2019-01-24T10:25:38.451Z,100428.41
2019-01-24T10:28:08.500Z,100419.84
2019-01-24T10:30:42.699Z,100425.50
2019-01-24T10:33:09.513Z,100429.55
2019-01-24T10:35:38.906Z,100429.89
2019-01-24T10:38:08.173Z,100433.00
2019-01-24T10:40:37.716Z,100442.33
2019-01-24T10:43:07.383Z,100432.09
2019-01-24T10:45:36.817Z,100426.69
2019-01-24T10:48:06.452Z,100424.23
2019-01-24T10:50:36.924Z,100419.97
2019-01-24T10:53:06.430Z,100420.70
2019-01-24T10:55:35.753Z,100415.36
2019-01-24T10:58:07.497Z,100417.39
2019-01-24T11:00:44.722Z,100415.23
2019-01-24T11:03:16.192Z,100416.59
2019-01-24T11:05:46.839Z,100414.84
2019-01-24T11:08:16.637Z,100405.59
2019-01-24T11:10:46.151Z,100406.99
2019-01-24T11:13:15.507Z,100409.86
2019-01-24T11:15:45.896Z,100397.55
2019-01-24T11:18:15.276Z,100405.00
2019-01-24T11:20:44.734Z,100405.80
2019-01-24T11:23:14.469Z,100409.73
2019-01-24T11:25:43.828Z,100405.92
2019-01-24T11:28:13.107Z,100407.63
2019-01-24T11:30:42.590Z,100416.63
2019-01-24T11:33:12.212Z,100413.55
2019-01-24T11:35:41.780Z,100411.95
2019-01-24T11:38:11.076Z,100410.41
2019-01-24T11:40:40.513Z,100413.72
2019-01-24T11:43:09.793Z,100423.44
2019-01-24T11:45:43.874Z,100429.69
2019-01-24T11:48:13.222Z,100426.53
2019-01-24T11:50:42.602Z,100425.94
2019-01-24T11:53:11.999Z,100429.36
2019-01-24T11:55:41.497Z,100421.08
2019-01-24T11:58:10.857Z,100420.17
2019-01-24T12:00:45.756Z,100421.31
2019-01-24T12:03:41.229Z,100426.43
2019-01-24T12:06:12.627Z,100418.55
2019-01-24T12:08:54.089Z,100430.31
2019-01-24T12:11:30.430Z,100431.78
2019-01-24T12:13:59.898Z,100440.20
2019-01-24T12:16:29.723Z,100435.84
2019-01-24T12:18:59.296Z,100427.28
2019-01-24T12:21:28.690Z,100439.30
2019-01-24T12:23:57.949Z,100439.19
2019-01-24T12:26:27.319Z,100432.14
2019-01-24T12:28:56.643Z,100440.44
2019-01-24T12:31:26.105Z,100432.14
2019-01-24T12:33:55.529Z,100436.61
2019-01-24T12:36:24.931Z,100435.73
2019-01-24T12:38:54.249Z,100442.40
2019-01-24T12:41:24.709Z,100441.92
2019-01-24T12:43:53.952Z,100440.65
2019-01-24T12:46:23.307Z,100439.69
2019-01-24T12:48:52.612Z,100443.56
2019-01-24T12:51:22.074Z,100450.97
2019-01-24T12:53:51.440Z,100449.57
2019-01-24T12:56:21.514Z,100447.19
2019-01-24T12:58:53.714Z,100444.83
2019-01-24T13:01:29.412Z,100441.16
2019-01-24T13:04:01.972Z,100438.05
2019-01-24T13:06:32.511Z,100428.80
2019-01-24T13:09:01.866Z,100429.12
2019-01-24T13:11:31.352Z,100427.53
2019-01-24T13:14:00.730Z,100430.23
2019-01-24T13:16:30.091Z,100431.14
2019-01-24T13:18:59.486Z,100429.18
2019-01-24T13:21:29.029Z,100431.88
2019-01-24T13:23:58.355Z,100422.32
2019-01-24T13:26:27.708Z,100422.28
2019-01-24T13:28:57.028Z,100421.68
2019-01-24T13:31:26.333Z,100419.59
2019-01-24T13:33:55.760Z,100415.17
2019-01-24T13:36:25.197Z,100421.20
2019-01-24T13:38:54.545Z,100421.41
2019-01-24T13:41:24.064Z,100429.00
2019-01-24T13:43:53.477Z,100433.63
2019-01-24T13:46:22.791Z,100436.34
2019-01-24T13:48:52.131Z,100440.69
2019-01-24T13:51:21.508Z,100446.06
2019-01-24T13:53:50.963Z,100448.62
2019-01-24T13:56:20.280Z,100447.75
2019-01-24T13:58:49.724Z,100446.00
2019-01-24T14:01:19.179Z,100440.55
2019-01-24T14:03:56.287Z,100441.75
2019-01-24T14:06:25.617Z,100439.81
2019-01-24T14:08:55.031Z,100437.51
2019-01-24T14:11:24.494Z,100441.86
2019-01-24T14:13:54.475Z,100447.52
2019-01-24T14:16:23.835Z,100447.61
2019-01-24T14:18:53.368Z,100447.88
2019-01-24T14:21:22.683Z,100463.85
2019-01-24T14:23:52.088Z,100457.20
2019-01-24T14:26:21.551Z,100461.44
2019-01-24T14:28:50.924Z,100463.65
2019-01-24T14:31:20.375Z,100468.69
2019-01-24T14:33:49.753Z,100467.50
2019-01-24T14:36:25.125Z,100478.00
2019-01-24T14:38:50.518Z,100476.48
2019-01-24T14:41:20.716Z,100478.26
2019-01-24T14:43:50.240Z,100477.15
2019-01-24T14:46:19.853Z,100480.19
2019-01-24T14:48:49.554Z,100486.66
2019-01-24T14:51:18.906Z,100485.02
2019-01-24T14:53:48.481Z,100493.50
2019-01-24T14:56:17.990Z,100487.47
2019-01-24T14:58:47.293Z,100482.48
2019-01-24T15:01:19.691Z,100482.63
2019-01-24T15:03:49.684Z,100489.05
2019-01-24T15:06:19.075Z,100498.23
2019-01-24T15:08:48.503Z,100499.80
2019-01-24T15:11:18.007Z,100500.68
2019-01-24T15:13:47.516Z,100494.77
2019-01-24T15:16:17.446Z,100486.61
2019-01-24T15:18:46.815Z,100493.80
2019-01-24T15:21:16.273Z,100490.34
2019-01-24T15:23:48.555Z,100482.52
2019-01-24T15:26:18.017Z,100489.69
2019-01-24T15:28:47.426Z,100494.24
2019-01-24T15:31:16.934Z,100499.14
2019-01-24T15:33:46.579Z,100499.32
2019-01-24T15:36:16.315Z,100503.77
2019-01-24T15:38:45.702Z,100508.94
2019-01-24T15:41:15.092Z,100508.13
2019-01-24T15:43:44.730Z,100508.53
2019-01-24T15:46:14.166Z,100505.08
2019-01-24T15:48:43.640Z,100515.48
2019-01-24T15:51:13.128Z,100519.30
2019-01-24T15:53:42.563Z,100523.85
2019-01-24T15:56:12.144Z,100527.92
2019-01-24T15:58:41.657Z,100527.59
2019-01-24T16:01:11.250Z,100531.44
2019-01-24T16:03:40.891Z,100538.72
2019-01-24T16:06:10.514Z,100534.93
2019-01-24T16:08:39.944Z,100530.05
2019-01-24T16:11:09.713Z,100543.62
2019-01-24T16:13:39.679Z,100538.86
2019-01-24T16:16:09.493Z,100545.27
2019-01-24T16:18:38.978Z,100547.08
2019-01-24T16:21:08.476Z,100556.25
2019-01-24T16:23:37.936Z,100550.28
2019-01-24T16:26:07.559Z,100551.95
2019-01-24T16:28:36.949Z,100552.57
2019-01-24T16:31:06.756Z,100552.45
2019-01-24T16:33:36.419Z,100557.00
2019-01-24T16:36:06.262Z,100560.93
2019-01-24T16:38:35.854Z,100559.98
2019-01-24T16:41:05.715Z,100559.84
2019-01-24T16:43:35.197Z,100559.52
2019-01-24T16:46:04.679Z,100557.00
2019-01-24T16:48:34.172Z,100554.52
2019-01-24T16:51:03.769Z,100560.70
2019-01-24T16:53:33.610Z,100568.09
2019-01-24T16:56:03.200Z,100569.41
2019-01-24T16:58:32.847Z,100568.70
2019-01-24T17:01:12.682Z,100570.34
2019-01-24T17:03:42.306Z,100570.34
2019-01-24T17:06:12.013Z,100561.34
2019-01-24T17:08:41.859Z,100573.94
2019-01-24T17:11:11.494Z,100581.44
2019-01-24T17:13:41.073Z,100585.73
2019-01-24T17:16:10.867Z,100591.81
2019-01-24T17:18:40.420Z,100594.20
2019-01-24T17:21:10.011Z,100598.70
2019-01-24T17:23:39.625Z,100601.94
2019-01-24T17:26:09.213Z,100601.61
2019-01-24T17:28:39.381Z,100603.49
2019-01-24T17:31:09.060Z,100604.58
2019-01-24T17:33:38.741Z,100611.48
2019-01-24T17:36:08.339Z,100607.09
2019-01-24T17:38:38.137Z,100608.73
2019-01-24T17:41:07.779Z,100613.97
2019-01-24T17:43:37.646Z,100611.02
2019-01-24T17:46:07.359Z,100615.43
2019-01-24T17:48:36.844Z,100616.89
2019-01-24T17:51:06.476Z,100614.27
2019-01-24T17:53:36.070Z,100613.33
2019-01-24T17:56:05.839Z,100615.58
2019-01-24T17:58:35.441Z,100618.56
2019-01-24T18:01:05.412Z,100621.19
2019-01-24T18:03:35.001Z,100626.52
2019-01-24T18:06:04.808Z,100621.64
2019-01-24T18:08:34.471Z,100633.91
2019-01-24T18:11:04.133Z,100628.06
2019-01-24T18:13:33.836Z,100621.06
2019-01-24T18:16:03.452Z,100623.58
2019-01-24T18:18:33.089Z,100633.59
2019-01-24T18:21:02.788Z,100631.30
2019-01-24T18:23:32.592Z,100635.83
2019-01-24T18:26:02.251Z,100642.38
2019-01-24T18:28:31.920Z,100647.84
2019-01-24T18:31:01.743Z,100645.09
2019-01-24T18:33:31.812Z,100651.30
2019-01-24T18:36:01.643Z,100654.39
2019-01-24T18:38:31.387Z,100662.62
2019-01-24T18:41:01.113Z,100661.78
2019-01-24T18:43:30.854Z,100667.36
2019-01-24T18:46:02.157Z,100670.20
2019-01-24T18:48:31.939Z,100679.75
2019-01-24T18:51:01.734Z,100677.41
2019-01-24T18:53:31.506Z,100691.44
2019-01-24T18:56:01.355Z,100678.01
2019-01-24T18:58:31.254Z,100692.74
2019-01-24T19:01:01.104Z,100693.58
2019-01-24T19:03:30.824Z,100701.20
2019-01-24T19:06:00.527Z,100702.04
2019-01-24T19:08:30.273Z,100712.75
2019-01-24T19:11:00.018Z,100714.76
2019-01-24T19:13:29.634Z,100715.70
2019-01-24T19:16:00.175Z,100710.12
2019-01-24T19:18:29.992Z,100718.45
2019-01-24T19:20:59.779Z,100714.39
2019-01-24T19:23:29.939Z,100712.14
2019-01-24T19:25:59.632Z,100717.61
2019-01-24T19:28:29.395Z,100711.30
2019-01-24T19:30:59.199Z,100711.64
2019-01-24T19:33:28.937Z,100706.17
2019-01-24T19:36:00.455Z,100707.84
2019-01-24T19:38:30.356Z,100700.83
2019-01-24T19:41:00.137Z,100700.97
2019-01-24T19:43:29.848Z,100702.38
2019-01-24T19:45:59.841Z,100705.36
2019-01-24T19:48:29.666Z,100707.75
2019-01-24T19:50:59.393Z,100708.08
2019-01-24T19:53:29.234Z,100700.12
2019-01-24T19:56:00.602Z,100702.61
2019-01-24T19:58:30.421Z,100702.14
2019-01-24T20:01:00.282Z,100698.34
2019-01-24T20:03:30.074Z,100710.59
2019-01-24T20:05:59.959Z,100694.05
2019-01-24T20:08:29.577Z,100698.34
2019-01-24T20:10:59.277Z,100691.56
2019-01-24T20:13:29.024Z,100695.97
2019-01-24T20:15:58.800Z,100699.66
2019-01-24T20:18:28.575Z,100703.11
2019-01-24T20:20:59.555Z,100705.73
2019-01-24T20:23:29.436Z,100709.99
2019-01-24T20:25:59.136Z,100711.06
2019-01-24T20:28:28.884Z,100698.72
2019-01-24T20:30:58.560Z,100705.59
2019-01-24T20:33:28.442Z,100702.51
2019-01-24T20:35:59.616Z,100702.04
2019-01-24T20:38:29.507Z,100696.20
2019-01-24T20:40:59.290Z,100694.66
2019-01-24T20:43:35.213Z,100694.66
2019-01-24T20:46:00.516Z,100710.47
2019-01-24T20:48:30.393Z,100705.23
2019-01-24T20:51:00.314Z,100712.61
2019-01-24T20:53:30.139Z,100708.92
2019-01-24T20:55:59.840Z,100713.08
2019-01-24T20:58:29.696Z,100714.76
2019-01-24T21:00:59.387Z,100717.98
2019-01-24T21:03:29.055Z,100724.53
2019-01-24T21:05:58.622Z,100718.92
2019-01-24T21:08:28.390Z,100722.62
2019-01-24T21:10:59.914Z,100715.70
2019-01-24T21:13:29.696Z,100708.82
2019-01-24T21:15:59.462Z,100708.92
2019-01-24T21:18:29.090Z,100708.08
2019-01-24T21:20:58.792Z,100721.08
2019-01-24T21:23:28.378Z,100710.97
2019-01-24T21:25:59.054Z,100718.55
2019-01-24T21:28:28.714Z,100724.05
2019-01-24T21:30:58.411Z,100724.05
2019-01-24T21:33:27.954Z,100728.80
2019-01-24T21:35:57.516Z,100734.86
2019-01-24T21:38:26.984Z,100735.70
2019-01-24T21:40:56.531Z,100738.45
2019-01-24T21:43:26.072Z,100733.08
2019-01-24T21:45:55.663Z,100739.30
2019-01-24T21:48:25.076Z,100740.23
2019-01-24T21:50:54.464Z,100735.60
2019-01-24T21:53:23.829Z,100728.32
2019-01-24T21:55:53.196Z,100726.78
2019-01-24T21:58:22.576Z,100725.84
2019-01-24T22:00:51.994Z,100722.62
2019-01-24T22:03:21.414Z,100729.87
2019-01-24T22:05:50.934Z,100735.47
2019-01-24T22:08:20.252Z,100738.93
2019-01-24T22:10:49.554Z,100733.22
2019-01-24T22:13:19.032Z,100734.16
2019-01-24T22:15:48.474Z,100731.44
2019-01-24T22:18:17.757Z,100734.62
2019-01-24T22:20:47.169Z,100739.62
2019-01-24T22:23:16.544Z,100740.94
2019-01-24T22:25:45.997Z,100741.07
2019-01-24T22:28:15.339Z,100739.86
2019-01-24T22:30:51.882Z,100736.55
2019-01-24T22:33:21.273Z,100739.50
2019-01-24T22:35:50.660Z,100744.03
2019-01-24T22:38:19.923Z,100742.73
2019-01-24T22:40:49.309Z,100735.34
2019-01-24T22:43:18.651Z,100737.12
2019-01-24T22:45:48.132Z,100739.64
2019-01-24T22:48:17.511Z,100738.43
2019-01-24T22:50:46.944Z,100742.25
2019-01-24T22:53:16.319Z,100739.03
2019-01-24T22:55:45.833Z,100744.03
2019-01-24T22:58:15.259Z,100739.88
2019-01-24T23:01:06.155Z,100747.12
2019-01-24T23:03:39.255Z,100739.88
2019-01-24T23:06:08.801Z,100743.20
2019-01-24T23:08:38.380Z,100745.68
2019-01-24T23:11:07.798Z,100745.21
2019-01-24T23:13:37.259Z,100751.39
2019-01-24T23:16:07.052Z,100756.63
2019-01-24T23:18:36.547Z,100753.44
2019-01-24T23:21:06.317Z,100754.74
2019-01-24T23:23:35.741Z,100751.99
2019-01-24T23:26:05.340Z,100751.52
2019-01-24T23:28:34.760Z,100742.36
2019-01-24T23:31:05.196Z,100750.92
2019-01-24T23:33:34.503Z,100749.98
2019-01-24T23:36:04.148Z,100746.75
2019-01-24T23:38:33.438Z,100746.75
2019-01-24T23:41:02.843Z,100744.38
2019-01-24T23:43:32.334Z,100752.46
2019-01-24T23:46:01.788Z,100757.09
2019-01-24T23:48:31.211Z,100752.59
2019-01-24T23:51:00.675Z,100752.46
2019-01-24T23:53:29.973Z,100751.63
2019-01-24T23:55:59.404Z,100757.47
2019-01-24T23:58:30.677Z,100758.06
